createdAt,value
2023-03-31T00:01:04.521Z,16.87
2023-03-31T00:03:34.279Z,16.20
2023-03-31T00:06:02.004Z,15.00
2023-03-31T00:08:35.663Z,13.67
2023-03-31T00:11:07.314Z,11.45
2023-03-31T00:13:35.619Z,12.63
2023-03-31T00:16:06.002Z,13.00
2023-03-31T00:18:34.459Z,13.15
2023-03-31T00:21:24.633Z,12.27
2023-03-31T00:23:57.818Z,11.90
2023-03-31T00:26:26.318Z,12.20
2023-03-31T00:28:54.493Z,12.07
2023-03-31T00:31:22.543Z,13.90
2023-03-31T00:33:50.754Z,15.10
2023-03-31T00:36:21.514Z,15.45
2023-03-31T00:38:49.392Z,17.25
2023-03-31T00:41:16.894Z,18.33
2023-03-31T00:44:02.362Z,17.92
2023-03-31T00:46:43.951Z,18.80
2023-03-31T00:49:16.550Z,18.45
2023-03-31T00:51:44.638Z,17.40
2023-03-31T00:54:12.738Z,15.07
2023-03-31T00:56:42.328Z,16.70
2023-03-31T00:59:12.012Z,15.82
2023-03-31T01:01:42.999Z,14.03
2023-03-31T01:04:12.395Z,15.04
2023-03-31T01:06:46.980Z,15.25
2023-03-31T01:09:17.033Z,14.50
2023-03-31T01:11:46.467Z,15.25
2023-03-31T01:14:14.381Z,16.80
2023-03-31T01:16:42.189Z,15.57
2023-03-31T01:19:17.384Z,16.02
2023-03-31T01:22:16.200Z,15.50
2023-03-31T01:25:08.577Z,15.40
2023-03-31T01:27:54.186Z,13.55
2023-03-31T01:30:31.275Z,12.37
2023-03-31T01:33:32.928Z,13.70
2023-03-31T01:36:19.292Z,14.55
2023-03-31T01:39:05.104Z,14.65
2023-03-31T01:42:05.022Z,14.75
2023-03-31T01:44:53.441Z,14.23
2023-03-31T01:47:31.754Z,13.23
2023-03-31T01:50:08.040Z,12.00
2023-03-31T01:52:45.939Z,10.63
2023-03-31T01:55:20.881Z,11.50
2023-03-31T01:57:52.830Z,10.50
2023-03-31T02:00:26.173Z,10.23
2023-03-31T02:03:01.604Z,9.40
2023-03-31T02:05:43.348Z,9.70
2023-03-31T02:08:14.437Z,8.73
2023-03-31T02:10:42.972Z,8.27
2023-03-31T02:13:11.773Z,8.02
2023-03-31T02:15:46.320Z,9.02
2023-03-31T02:18:17.328Z,8.23
2023-03-31T02:20:47.544Z,7.57
2023-03-31T02:23:17.335Z,8.43
2023-03-31T02:25:51.457Z,8.30
2023-03-31T02:28:21.684Z,8.63
2023-03-31T02:30:53.320Z,9.32
2023-03-31T02:33:21.331Z,8.98
2023-03-31T02:35:48.772Z,9.45
2023-03-31T02:38:16.435Z,9.77
2023-03-31T02:40:44.205Z,9.25
2023-03-31T02:43:11.951Z,8.93
2023-03-31T02:45:45.359Z,9.27
2023-03-31T02:48:26.538Z,9.20
2023-03-31T02:51:23.064Z,8.85
2023-03-31T02:54:20.006Z,9.52
2023-03-31T02:57:03.084Z,9.05
2023-03-31T02:59:45.938Z,8.90
2023-03-31T03:02:47.587Z,9.30
2023-03-31T03:05:41.409Z,8.83
2023-03-31T03:08:29.993Z,8.68
2023-03-31T03:11:11.308Z,8.70
2023-03-31T03:13:51.834Z,9.23
2023-03-31T03:16:42.526Z,9.02
2023-03-31T03:19:10.642Z,9.90
2023-03-31T03:21:38.375Z,9.50
2023-03-31T03:24:06.376Z,9.63
2023-03-31T03:26:35.278Z,10.48
2023-03-31T03:29:02.997Z,9.77
2023-03-31T03:31:30.815Z,10.02
2023-03-31T03:33:58.172Z,10.20
2023-03-31T03:36:26.030Z,10.18
2023-03-31T03:38:53.491Z,10.18
2023-03-31T03:41:20.918Z,9.15
2023-03-31T03:43:48.608Z,9.80
2023-03-31T03:46:16.244Z,10.85
2023-03-31T03:48:43.756Z,10.10
2023-03-31T03:51:11.405Z,11.45
2023-03-31T03:53:38.830Z,13.90
2023-03-31T03:56:06.880Z,13.50
2023-03-31T03:58:35.012Z,14.30
2023-03-31T04:01:02.450Z,20.37
2023-03-31T04:03:31.204Z,27.95
2023-03-31T04:05:58.735Z,17.37
2023-03-31T04:08:26.308Z,15.05
2023-03-31T04:10:53.974Z,12.68
2023-03-31T04:13:21.514Z,12.68
2023-03-31T04:15:49.212Z,14.20
2023-03-31T04:18:23.313Z,13.88
2023-03-31T04:21:04.212Z,12.27
2023-03-31T04:23:33.308Z,10.80
2023-03-31T04:26:01.345Z,11.88
2023-03-31T04:28:34.817Z,12.35
2023-03-31T04:31:04.099Z,12.15
2023-03-31T04:33:34.183Z,11.20
2023-03-31T04:36:06.867Z,12.02
2023-03-31T04:38:34.802Z,11.82
2023-03-31T04:41:02.270Z,12.18
2023-03-31T04:43:29.645Z,11.85
2023-03-31T04:45:57.546Z,12.10
2023-03-31T04:48:25.658Z,11.73
2023-03-31T04:50:53.034Z,12.00
2023-03-31T04:53:20.742Z,11.45
2023-03-31T04:55:49.298Z,11.63
2023-03-31T04:58:16.917Z,12.65
2023-03-31T05:00:44.718Z,12.32
2023-03-31T05:03:12.167Z,11.50
2023-03-31T05:05:39.899Z,12.90
2023-03-31T05:08:07.652Z,13.70
2023-03-31T05:10:35.437Z,13.68
2023-03-31T05:13:03.372Z,14.30
2023-03-31T05:15:32.429Z,14.65
2023-03-31T05:18:00.952Z,14.63
2023-03-31T05:20:28.367Z,14.32
2023-03-31T05:22:56.090Z,16.25
2023-03-31T05:25:23.641Z,16.33
2023-03-31T05:27:51.151Z,15.48
2023-03-31T05:30:18.900Z,15.15
2023-03-31T05:32:46.522Z,16.08
2023-03-31T05:35:14.007Z,15.98
2023-03-31T05:37:41.686Z,14.27
2023-03-31T05:40:09.829Z,14.93
2023-03-31T05:42:37.956Z,14.80
2023-03-31T05:45:09.009Z,14.20
2023-03-31T05:47:37.055Z,14.30
2023-03-31T05:50:07.869Z,14.43
2023-03-31T05:52:36.168Z,13.85
2023-03-31T05:55:04.562Z,16.35
2023-03-31T05:57:32.580Z,21.97
2023-03-31T06:00:01.211Z,23.17
2023-03-31T06:02:28.885Z,22.23
2023-03-31T06:04:56.639Z,14.93
2023-03-31T06:07:25.038Z,12.65
2023-03-31T06:09:52.703Z,11.05
2023-03-31T06:12:21.864Z,10.68
2023-03-31T06:14:49.307Z,9.82
2023-03-31T06:17:16.763Z,9.50
2023-03-31T06:19:44.483Z,9.73
2023-03-31T06:22:12.172Z,11.18
2023-03-31T06:24:39.951Z,10.90
2023-03-31T06:27:07.772Z,11.95
2023-03-31T06:29:35.294Z,12.02
2023-03-31T06:32:05.098Z,12.25
2023-03-31T06:34:32.911Z,12.27
2023-03-31T06:37:01.381Z,11.65
2023-03-31T06:39:28.908Z,10.10
2023-03-31T06:41:57.120Z,10.57
2023-03-31T06:44:25.724Z,9.95
2023-03-31T06:46:53.205Z,10.23
2023-03-31T06:49:21.212Z,9.23
2023-03-31T06:51:48.652Z,8.50
2023-03-31T06:54:16.895Z,14.15
2023-03-31T06:56:45.133Z,14.52
2023-03-31T06:59:12.888Z,8.45
2023-03-31T07:01:42.662Z,7.10
2023-03-31T07:04:11.048Z,5.85
2023-03-31T07:06:38.745Z,6.53
2023-03-31T07:09:07.112Z,6.75
2023-03-31T07:11:34.942Z,5.80
2023-03-31T07:14:02.556Z,6.07
2023-03-31T07:16:31.544Z,7.32
2023-03-31T07:19:04.366Z,7.53
2023-03-31T07:21:31.866Z,9.20
2023-03-31T07:23:59.572Z,6.53
2023-03-31T07:26:27.784Z,5.10
2023-03-31T07:28:57.362Z,4.68
2023-03-31T07:31:25.035Z,4.47
2023-03-31T07:33:52.838Z,4.57
2023-03-31T07:36:20.899Z,4.55
2023-03-31T07:38:49.728Z,4.65
2023-03-31T07:41:19.582Z,3.83
2023-03-31T07:43:47.783Z,3.70
2023-03-31T07:46:18.141Z,3.85
2023-03-31T07:48:47.055Z,5.68
2023-03-31T07:51:16.924Z,6.00
2023-03-31T07:53:46.409Z,5.93
2023-03-31T07:56:14.199Z,4.70
2023-03-31T07:58:41.905Z,5.07
2023-03-31T08:01:09.780Z,5.70
2023-03-31T08:03:38.947Z,5.67
2023-03-31T08:06:06.593Z,4.95
2023-03-31T08:08:34.210Z,5.47
2023-03-31T08:11:01.984Z,5.30
2023-03-31T08:13:29.674Z,5.30
2023-03-31T08:15:57.345Z,5.50
2023-03-31T08:18:25.309Z,4.35
2023-03-31T08:33:14.269Z,3.90
2023-03-31T08:35:41.787Z,4.12
2023-03-31T08:38:12.250Z,3.45
2023-03-31T08:40:43.713Z,3.42
